ASA416 KSEA-KLAX
Flight info
| Callsign | ASA416 |
|---|---|
| Flight time | 2h 2m |
| Altitude | 35000 |
| Route | OZWLD KPOWW SEA152033 JINMO Q7 JAGWA BURGL IRNMN2 |
| Aircraft | B738/M-SDE2E3FGHIRWXY/LB1 |
Departure
| Time | 2026-05-05 02:13 |
|---|---|
| Airport | Seattle–Tacoma International Airport (KSEA) |
Arrival
| Time | 2026-05-05 04:15 |
|---|---|
| Airport | Los Angeles International Airport (KLAX) |
| Time | Latitude | Longitude | Altitude | Speed | Heading |
|---|---|---|---|---|---|
| 2026-05-05 01:43 | 47.44754 | -122.30139 | 408 ft | 0 kts | 336° |
| 2026-05-05 01:51 | 47.44741 | -122.30131 | 405 ft | 4 kts | 329° |
| 2026-05-05 01:51 | 47.44721 | -122.30106 | 407 ft | 4 kts | 300° |
| 2026-05-05 01:51 | 47.44715 | -122.30071 | 404 ft | 4 kts | 257° |
| 2026-05-05 01:52 | 47.44726 | -122.30037 | 401 ft | 4 kts | 224° |
| 2026-05-05 01:52 | 47.44733 | -122.30028 | 402 ft | 1 kts | 219° |
| 2026-05-05 01:54 | 47.44730 | -122.30032 | 404 ft | 1 kts | 219° |
| 2026-05-05 01:54 | 47.44724 | -122.30039 | 402 ft | 1 kts | 218° |
| 2026-05-05 01:54 | 47.44713 | -122.30052 | 406 ft | 2 kts | 220° |
| 2026-05-05 01:55 | 47.44703 | -122.30066 | 404 ft | 2 kts | 225° |
| 2026-05-05 01:55 | 47.44690 | -122.30091 | 405 ft | 4 kts | 240° |
| 2026-05-05 01:58 | 47.44688 | -122.30098 | 405 ft | 4 kts | 242° |
| 2026-05-05 01:59 | 47.44678 | -122.30154 | 405 ft | 6 kts | 265° |
| 2026-05-05 01:59 | 47.44682 | -122.30216 | 404 ft | 6 kts | 284° |
| 2026-05-05 01:59 | 47.44700 | -122.30268 | 405 ft | 0 kts | 306° |
| 2026-05-05 02:00 | 47.44702 | -122.30271 | 405 ft | 3 kts | 306° |
| 2026-05-05 02:01 | 47.44723 | -122.30315 | 405 ft | 6 kts | 308° |
| 2026-05-05 02:01 | 47.44749 | -122.30357 | 404 ft | 4 kts | 307° |
| 2026-05-05 02:01 | 47.44749 | -122.30358 | 404 ft | 0 kts | 306° |
| 2026-05-05 02:06 | 47.44749 | -122.30359 | 406 ft | 1 kts | 306° |
| 2026-05-05 02:07 | 47.44756 | -122.30374 | 403 ft | 3 kts | 304° |
| 2026-05-05 02:07 | 47.44773 | -122.30414 | 406 ft | 6 kts | 299° |
| 2026-05-05 02:07 | 47.44793 | -122.30488 | 405 ft | 9 kts | 290° |
| 2026-05-05 02:07 | 47.44814 | -122.30588 | 402 ft | 11 kts | 290° |
| 2026-05-05 02:08 | 47.44876 | -122.30629 | 406 ft | 10 kts | 356° |
| 2026-05-05 02:08 | 47.44948 | -122.30629 | 409 ft | 10 kts | 2° |
| 2026-05-05 02:08 | 47.45017 | -122.30630 | 411 ft | 10 kts | 358° |
| 2026-05-05 02:08 | 47.45084 | -122.30629 | 412 ft | 10 kts | 1° |
| 2026-05-05 02:09 | 47.45150 | -122.30626 | 412 ft | 9 kts | 359° |
| 2026-05-05 02:09 | 47.45214 | -122.30630 | 412 ft | 9 kts | 356° |
| 2026-05-05 02:09 | 47.45291 | -122.30626 | 419 ft | 15 kts | 2° |
| 2026-05-05 02:09 | 47.45392 | -122.30625 | 423 ft | 14 kts | 0° |
| 2026-05-05 02:10 | 47.45497 | -122.30625 | 424 ft | 17 kts | 0° |
| 2026-05-05 02:10 | 47.45625 | -122.30624 | 429 ft | 19 kts | 0° |
| 2026-05-05 02:10 | 47.45759 | -122.30623 | 427 ft | 19 kts | 0° |
| 2026-05-05 02:10 | 47.45889 | -122.30620 | 435 ft | 18 kts | 0° |
| 2026-05-05 02:11 | 47.46015 | -122.30621 | 437 ft | 18 kts | 0° |
| 2026-05-05 02:11 | 47.46137 | -122.30618 | 435 ft | 17 kts | 0° |
| 2026-05-05 02:11 | 47.46254 | -122.30618 | 437 ft | 17 kts | 359° |
| 2026-05-05 02:11 | 47.46353 | -122.30633 | 438 ft | 13 kts | 329° |
| 2026-05-05 02:12 | 47.46372 | -122.30745 | 439 ft | 13 kts | 229° |
| 2026-05-05 02:12 | 47.45541 | -122.30782 | 424 ft | 137 kts | 181° |
| 2026-05-05 02:12 | 47.44372 | -122.30799 | 638 ft | 186 kts | 184° |
| 2026-05-05 02:13 | 47.43060 | -122.30795 | 1660 ft | 194 kts | 181° |
| 2026-05-05 02:13 | 47.41733 | -122.30727 | 2844 ft | 189 kts | 179° |
| 2026-05-05 02:13 | 47.40397 | -122.30696 | 3574 ft | 201 kts | 181° |
| 2026-05-05 02:13 | 47.38909 | -122.30723 | 3763 ft | 226 kts | 181° |
| 2026-05-05 02:14 | 47.37262 | -122.30759 | 3947 ft | 249 kts | 181° |
| 2026-05-05 02:14 | 47.35439 | -122.30797 | 4227 ft | 272 kts | 181° |
| 2026-05-05 02:14 | 47.33522 | -122.30833 | 4845 ft | 281 kts | 181° |
| 2026-05-05 02:14 | 47.31553 | -122.30866 | 5583 ft | 283 kts | 181° |
| 2026-05-05 02:15 | 47.29569 | -122.30898 | 6301 ft | 288 kts | 181° |
| 2026-05-05 02:15 | 47.27541 | -122.30931 | 6949 ft | 293 kts | 180° |
| 2026-05-05 02:15 | 47.25496 | -122.30962 | 7689 ft | 295 kts | 180° |
| 2026-05-05 02:15 | 47.23452 | -122.30632 | 8359 ft | 299 kts | 162° |
| 2026-05-05 02:16 | 47.21492 | -122.29627 | 9131 ft | 299 kts | 158° |
| 2026-05-05 02:16 | 47.19537 | -122.28537 | 9827 ft | 302 kts | 158° |
| 2026-05-05 02:16 | 47.17548 | -122.27431 | 10333 ft | 313 kts | 158° |
| 2026-05-05 02:16 | 47.15434 | -122.26276 | 10486 ft | 335 kts | 159° |
| 2026-05-05 02:17 | 47.13176 | -122.25066 | 10645 ft | 356 kts | 159° |
| 2026-05-05 02:17 | 47.10795 | -122.23812 | 10957 ft | 370 kts | 159° |
| 2026-05-05 02:17 | 47.08348 | -122.22538 | 11498 ft | 375 kts | 160° |
| 2026-05-05 02:17 | 47.05874 | -122.21261 | 12156 ft | 378 kts | 160° |
| 2026-05-05 02:18 | 47.03379 | -122.19979 | 12798 ft | 382 kts | 160° |
| 2026-05-05 02:18 | 47.00854 | -122.18685 | 13419 ft | 386 kts | 160° |
| 2026-05-05 02:18 | 46.98299 | -122.17378 | 14002 ft | 392 kts | 160° |
| 2026-05-05 02:18 | 46.95716 | -122.16057 | 14582 ft | 396 kts | 160° |
| 2026-05-05 02:19 | 46.93099 | -122.14721 | 15175 ft | 400 kts | 160° |
| 2026-05-05 02:19 | 46.90459 | -122.13375 | 15778 ft | 404 kts | 160° |
| 2026-05-05 02:19 | 46.87787 | -122.12012 | 16359 ft | 409 kts | 160° |
| 2026-05-05 02:19 | 46.85092 | -122.10641 | 16979 ft | 412 kts | 160° |
| 2026-05-05 02:20 | 46.82370 | -122.09257 | 17545 ft | 416 kts | 159° |
| 2026-05-05 02:20 | 46.79622 | -122.07859 | 18092 ft | 421 kts | 159° |
| 2026-05-05 02:20 | 46.76875 | -122.06464 | 18553 ft | 425 kts | 159° |
| 2026-05-05 02:20 | 46.74034 | -122.05024 | 19073 ft | 428 kts | 159° |
| 2026-05-05 02:21 | 46.71206 | -122.03591 | 19569 ft | 432 kts | 159° |
| 2026-05-05 02:21 | 46.68387 | -122.02166 | 20053 ft | 436 kts | 159° |
| 2026-05-05 02:21 | 46.65504 | -122.00732 | 20547 ft | 440 kts | 161° |
| 2026-05-05 02:21 | 46.62482 | -121.99955 | 21081 ft | 444 kts | 177° |
| 2026-05-05 02:22 | 46.59353 | -122.00270 | 21572 ft | 448 kts | 191° |
| 2026-05-05 02:22 | 46.56402 | -122.01580 | 21989 ft | 452 kts | 202° |
| 2026-05-05 02:22 | 46.53464 | -122.03294 | 22353 ft | 456 kts | 202° |
| 2026-05-05 02:22 | 46.50513 | -122.05030 | 22736 ft | 461 kts | 202° |
| 2026-05-05 02:23 | 46.47519 | -122.06747 | 23163 ft | 464 kts | 201° |
| 2026-05-05 02:23 | 46.44450 | -122.08458 | 23579 ft | 468 kts | 201° |
| 2026-05-05 02:23 | 46.41398 | -122.10120 | 23966 ft | 470 kts | 199° |
| 2026-05-05 02:23 | 46.38222 | -122.11284 | 24346 ft | 472 kts | 188° |
| 2026-05-05 02:24 | 46.34943 | -122.11690 | 24733 ft | 473 kts | 179° |
| 2026-05-05 02:24 | 46.32767 | -122.11583 | 24989 ft | 473 kts | 172° |
| 2026-05-05 02:24 | 46.29519 | -122.10889 | 25407 ft | 473 kts | 168° |
| 2026-05-05 02:24 | 46.26270 | -122.10070 | 25756 ft | 475 kts | 167° |
| 2026-05-05 02:25 | 46.23004 | -122.09227 | 26060 ft | 478 kts | 167° |
| 2026-05-05 02:25 | 46.19715 | -122.08385 | 26404 ft | 481 kts | 168° |
| 2026-05-05 02:25 | 46.15338 | -122.07292 | 26863 ft | 484 kts | 168° |
| 2026-05-05 02:25 | 46.12008 | -122.06480 | 27196 ft | 486 kts | 168° |
| 2026-05-05 02:26 | 46.08667 | -122.05677 | 27521 ft | 488 kts | 168° |
| 2026-05-05 02:26 | 46.06399 | -122.05135 | 27727 ft | 490 kts | 168° |
| 2026-05-05 02:26 | 46.03026 | -122.04334 | 28058 ft | 492 kts | 168° |
| 2026-05-05 02:26 | 45.99641 | -122.03533 | 28361 ft | 495 kts | 168° |
| 2026-05-05 02:27 | 45.96232 | -122.02726 | 28641 ft | 497 kts | 168° |
| 2026-05-05 02:27 | 45.92813 | -122.01917 | 28937 ft | 500 kts | 168° |
| 2026-05-05 02:27 | 45.89375 | -122.01104 | 29225 ft | 501 kts | 168° |
| 2026-05-05 02:27 | 45.85928 | -122.00289 | 29583 ft | 501 kts | 168° |
| 2026-05-05 02:28 | 45.82491 | -121.99478 | 29997 ft | 501 kts | 168° |
| 2026-05-05 02:28 | 45.79056 | -121.98669 | 30347 ft | 500 kts | 168° |
| 2026-05-05 02:28 | 45.75630 | -121.97863 | 30658 ft | 499 kts | 167° |
| 2026-05-05 02:28 | 45.72202 | -121.97056 | 30956 ft | 500 kts | 167° |
| 2026-05-05 02:29 | 45.68766 | -121.96248 | 31220 ft | 501 kts | 167° |
| 2026-05-05 02:29 | 45.65331 | -121.95442 | 31501 ft | 501 kts | 167° |
| 2026-05-05 02:29 | 45.61898 | -121.94638 | 31858 ft | 499 kts | 167° |
| 2026-05-05 02:29 | 45.58471 | -121.93836 | 32210 ft | 498 kts | 167° |
| 2026-05-05 02:30 | 45.55051 | -121.93036 | 32520 ft | 498 kts | 167° |
| 2026-05-05 02:30 | 45.51627 | -121.92236 | 32813 ft | 498 kts | 166° |
| 2026-05-05 02:30 | 45.48209 | -121.91439 | 33142 ft | 497 kts | 166° |
| 2026-05-05 02:30 | 45.44798 | -121.90645 | 33492 ft | 496 kts | 166° |
| 2026-05-05 02:31 | 45.41400 | -121.89855 | 33899 ft | 493 kts | 166° |
| 2026-05-05 02:31 | 45.38021 | -121.89071 | 34196 ft | 492 kts | 166° |
| 2026-05-05 02:31 | 45.34665 | -121.88292 | 34431 ft | 492 kts | 166° |
| 2026-05-05 02:31 | 45.31283 | -121.87506 | 34621 ft | 493 kts | 166° |
| 2026-05-05 02:32 | 45.27897 | -121.86721 | 34871 ft | 492 kts | 166° |
| 2026-05-05 02:32 | 45.21100 | -121.85147 | 34927 ft | 496 kts | 166° |
| 2026-05-05 02:33 | 45.14293 | -121.83579 | 34915 ft | 493 kts | 166° |
| 2026-05-05 02:33 | 45.07554 | -121.82034 | 34944 ft | 489 kts | 166° |
| 2026-05-05 02:34 | 45.00833 | -121.80491 | 34913 ft | 489 kts | 166° |
| 2026-05-05 02:34 | 44.94131 | -121.78955 | 34907 ft | 488 kts | 166° |
| 2026-05-05 02:35 | 44.87430 | -121.77424 | 34934 ft | 488 kts | 166° |
| 2026-05-05 02:35 | 44.80731 | -121.75896 | 34922 ft | 488 kts | 166° |
| 2026-05-05 02:36 | 44.74018 | -121.74371 | 34925 ft | 489 kts | 166° |
| 2026-05-05 02:36 | 44.67294 | -121.72845 | 34921 ft | 490 kts | 166° |
| 2026-05-05 02:37 | 44.60555 | -121.71321 | 34892 ft | 491 kts | 166° |
| 2026-05-05 02:37 | 44.53808 | -121.69798 | 34900 ft | 491 kts | 165° |
| 2026-05-05 02:38 | 44.47060 | -121.68279 | 34885 ft | 491 kts | 166° |
| 2026-05-05 02:38 | 44.40318 | -121.66763 | 34900 ft | 491 kts | 166° |
| 2026-05-05 02:39 | 44.33574 | -121.65251 | 34901 ft | 490 kts | 166° |
| 2026-05-05 02:39 | 44.26847 | -121.63714 | 34891 ft | 490 kts | 165° |
| 2026-05-05 02:40 | 44.20128 | -121.62146 | 34900 ft | 490 kts | 165° |
| 2026-05-05 02:40 | 44.13410 | -121.60582 | 34886 ft | 489 kts | 165° |
| 2026-05-05 02:41 | 44.06698 | -121.59029 | 34901 ft | 489 kts | 165° |
| 2026-05-05 02:41 | 43.99989 | -121.57482 | 34906 ft | 488 kts | 165° |
| 2026-05-05 02:42 | 43.93291 | -121.55943 | 34876 ft | 488 kts | 165° |
| 2026-05-05 02:42 | 43.86606 | -121.54409 | 34874 ft | 486 kts | 165° |
| 2026-05-05 02:43 | 43.79938 | -121.52883 | 34873 ft | 486 kts | 165° |
| 2026-05-05 02:43 | 43.73274 | -121.51361 | 34862 ft | 485 kts | 165° |
| 2026-05-05 02:44 | 43.66618 | -121.49844 | 34867 ft | 484 kts | 165° |
| 2026-05-05 02:44 | 43.59976 | -121.48333 | 34868 ft | 484 kts | 165° |
| 2026-05-05 02:45 | 43.53386 | -121.46838 | 34858 ft | 483 kts | 165° |
| 2026-05-05 02:45 | 43.46759 | -121.45338 | 34863 ft | 483 kts | 165° |
| 2026-05-05 02:46 | 43.40133 | -121.43841 | 34859 ft | 482 kts | 165° |
| 2026-05-05 02:46 | 43.33512 | -121.42348 | 34848 ft | 482 kts | 165° |
| 2026-05-05 02:47 | 43.26891 | -121.40860 | 34854 ft | 482 kts | 165° |
| 2026-05-05 02:47 | 43.20282 | -121.39377 | 34852 ft | 481 kts | 165° |
| 2026-05-05 02:48 | 43.13686 | -121.37900 | 34850 ft | 480 kts | 165° |
| 2026-05-05 02:48 | 43.07097 | -121.36428 | 34853 ft | 479 kts | 165° |
| 2026-05-05 02:49 | 43.00511 | -121.34959 | 34841 ft | 480 kts | 165° |
| 2026-05-05 02:49 | 42.93926 | -121.33494 | 34834 ft | 480 kts | 165° |
| 2026-05-05 02:50 | 42.87339 | -121.32032 | 34848 ft | 479 kts | 165° |
| 2026-05-05 02:50 | 42.80759 | -121.30577 | 34834 ft | 479 kts | 165° |
| 2026-05-05 02:51 | 42.74187 | -121.29127 | 34827 ft | 478 kts | 165° |
| 2026-05-05 02:51 | 42.67628 | -121.27683 | 34833 ft | 477 kts | 165° |
| 2026-05-05 02:52 | 42.61074 | -121.26241 | 34822 ft | 477 kts | 165° |
| 2026-05-05 02:52 | 42.54535 | -121.24807 | 34821 ft | 476 kts | 165° |
| 2026-05-05 02:53 | 42.47996 | -121.23376 | 34831 ft | 476 kts | 165° |
| 2026-05-05 02:53 | 42.41465 | -121.21949 | 34822 ft | 476 kts | 165° |
| 2026-05-05 02:54 | 42.34925 | -121.20523 | 34809 ft | 476 kts | 165° |
| 2026-05-05 02:54 | 42.28396 | -121.19102 | 34809 ft | 476 kts | 165° |
| 2026-05-05 02:55 | 42.21856 | -121.17683 | 34806 ft | 476 kts | 165° |
| 2026-05-05 02:55 | 42.15328 | -121.16268 | 34813 ft | 475 kts | 165° |
| 2026-05-05 02:56 | 42.08794 | -121.14856 | 34829 ft | 476 kts | 165° |
| 2026-05-05 02:56 | 42.02254 | -121.13445 | 34817 ft | 476 kts | 165° |
| 2026-05-05 02:57 | 41.95717 | -121.12038 | 34822 ft | 475 kts | 165° |
| 2026-05-05 02:57 | 41.89182 | -121.10634 | 34829 ft | 476 kts | 165° |
| 2026-05-05 02:58 | 41.82636 | -121.09230 | 34827 ft | 476 kts | 165° |
| 2026-05-05 02:58 | 41.76090 | -121.07830 | 34818 ft | 476 kts | 165° |
| 2026-05-05 02:59 | 41.69542 | -121.06432 | 34831 ft | 477 kts | 165° |
| 2026-05-05 02:59 | 41.62981 | -121.05033 | 34812 ft | 479 kts | 165° |
| 2026-05-05 03:00 | 41.56342 | -121.03618 | 34863 ft | 487 kts | 165° |
| 2026-05-05 03:00 | 41.49647 | -121.02199 | 34863 ft | 487 kts | 165° |
| 2026-05-05 03:01 | 41.42965 | -121.00787 | 34856 ft | 485 kts | 165° |
| 2026-05-05 03:01 | 41.36303 | -120.99381 | 34899 ft | 484 kts | 165° |
| 2026-05-05 03:02 | 41.29671 | -120.97983 | 34880 ft | 482 kts | 165° |
| 2026-05-05 03:02 | 41.23056 | -120.96591 | 34882 ft | 481 kts | 165° |
| 2026-05-05 03:03 | 41.16454 | -120.95204 | 34923 ft | 480 kts | 165° |
| 2026-05-05 03:03 | 41.09863 | -120.93822 | 34917 ft | 479 kts | 165° |
| 2026-05-05 03:04 | 41.03289 | -120.92446 | 34903 ft | 478 kts | 165° |
| 2026-05-05 03:04 | 40.96676 | -120.91320 | 34906 ft | 481 kts | 170° |
| 2026-05-05 03:05 | 40.89977 | -120.90811 | 34908 ft | 482 kts | 172° |
| 2026-05-05 03:05 | 40.83278 | -120.90390 | 34907 ft | 482 kts | 171° |
| 2026-05-05 03:06 | 40.76591 | -120.89910 | 34924 ft | 481 kts | 171° |
| 2026-05-05 03:06 | 40.71038 | -120.89476 | 34913 ft | 481 kts | 171° |
| 2026-05-05 03:07 | 40.64356 | -120.88941 | 34903 ft | 481 kts | 171° |
| 2026-05-05 03:07 | 40.57691 | -120.88407 | 34916 ft | 481 kts | 171° |
| 2026-05-05 03:08 | 40.51000 | -120.87875 | 34902 ft | 482 kts | 171° |
| 2026-05-05 03:08 | 40.44311 | -120.87345 | 34903 ft | 481 kts | 171° |
| 2026-05-05 03:09 | 40.37625 | -120.86817 | 34912 ft | 482 kts | 171° |
| 2026-05-05 03:09 | 40.30930 | -120.86289 | 34915 ft | 482 kts | 171° |
| 2026-05-05 03:10 | 40.24237 | -120.85763 | 34937 ft | 482 kts | 172° |
| 2026-05-05 03:10 | 40.17537 | -120.85237 | 34943 ft | 482 kts | 172° |
| 2026-05-05 03:11 | 40.10837 | -120.84712 | 34964 ft | 482 kts | 172° |
| 2026-05-05 03:11 | 40.04141 | -120.84188 | 34984 ft | 483 kts | 172° |
| 2026-05-05 03:12 | 39.97436 | -120.83664 | 34972 ft | 483 kts | 172° |
| 2026-05-05 03:12 | 39.90739 | -120.83144 | 34997 ft | 482 kts | 172° |
| 2026-05-05 03:13 | 39.84036 | -120.82623 | 35005 ft | 482 kts | 172° |
| 2026-05-05 03:13 | 39.77350 | -120.82104 | 35012 ft | 481 kts | 172° |
| 2026-05-05 03:14 | 39.70677 | -120.81587 | 35013 ft | 480 kts | 172° |
| 2026-05-05 03:14 | 39.64009 | -120.81072 | 35028 ft | 479 kts | 172° |
| 2026-05-05 03:15 | 39.57375 | -120.80561 | 35026 ft | 477 kts | 172° |
| 2026-05-05 03:15 | 39.50751 | -120.80051 | 35051 ft | 476 kts | 172° |
| 2026-05-05 03:16 | 39.44139 | -120.79542 | 35034 ft | 476 kts | 172° |
| 2026-05-05 03:16 | 39.37541 | -120.79036 | 35031 ft | 475 kts | 172° |
| 2026-05-05 03:17 | 39.30944 | -120.78531 | 35085 ft | 474 kts | 172° |
| 2026-05-05 03:17 | 39.24357 | -120.78027 | 35060 ft | 474 kts | 172° |
| 2026-05-05 03:18 | 39.17773 | -120.77525 | 35047 ft | 474 kts | 172° |
| 2026-05-05 03:18 | 39.11194 | -120.77024 | 35066 ft | 473 kts | 172° |
| 2026-05-05 03:19 | 39.01387 | -120.76280 | 35043 ft | 473 kts | 172° |
| 2026-05-05 03:19 | 38.94819 | -120.75782 | 35046 ft | 472 kts | 172° |
| 2026-05-05 03:20 | 38.88257 | -120.75285 | 35051 ft | 473 kts | 172° |
| 2026-05-05 03:20 | 38.81684 | -120.74789 | 35059 ft | 473 kts | 172° |
| 2026-05-05 03:21 | 38.75114 | -120.74294 | 35057 ft | 473 kts | 172° |
| 2026-05-05 03:21 | 38.68533 | -120.73798 | 35057 ft | 474 kts | 173° |
| 2026-05-05 03:22 | 38.61942 | -120.73303 | 35040 ft | 475 kts | 173° |
| 2026-05-05 03:22 | 38.55327 | -120.72808 | 35039 ft | 476 kts | 173° |
| 2026-05-05 03:23 | 38.48700 | -120.72312 | 35036 ft | 478 kts | 173° |
| 2026-05-05 03:23 | 38.42064 | -120.71817 | 35038 ft | 478 kts | 173° |
| 2026-05-05 03:24 | 38.35414 | -120.71321 | 35034 ft | 479 kts | 173° |
| 2026-05-05 03:24 | 38.28769 | -120.70827 | 35043 ft | 478 kts | 173° |
| 2026-05-05 03:25 | 38.22124 | -120.70334 | 35034 ft | 478 kts | 173° |
| 2026-05-05 03:25 | 38.15492 | -120.69843 | 35041 ft | 477 kts | 173° |
| 2026-05-05 03:26 | 38.08870 | -120.69352 | 35045 ft | 476 kts | 174° |
| 2026-05-05 03:26 | 38.02264 | -120.68865 | 35028 ft | 474 kts | 174° |
| 2026-05-05 03:27 | 37.95685 | -120.68380 | 35019 ft | 473 kts | 174° |
| 2026-05-05 03:27 | 37.89118 | -120.67896 | 35025 ft | 472 kts | 174° |
| 2026-05-05 03:28 | 37.82562 | -120.67414 | 35019 ft | 471 kts | 174° |
| 2026-05-05 03:28 | 37.76022 | -120.66935 | 35022 ft | 471 kts | 174° |
| 2026-05-05 03:29 | 37.69486 | -120.66456 | 35032 ft | 470 kts | 175° |
| 2026-05-05 03:29 | 37.62956 | -120.65979 | 35018 ft | 470 kts | 175° |
| 2026-05-05 03:30 | 37.56421 | -120.65502 | 35019 ft | 470 kts | 175° |
| 2026-05-05 03:30 | 37.49895 | -120.65027 | 35027 ft | 470 kts | 175° |
| 2026-05-05 03:31 | 37.43369 | -120.64553 | 35015 ft | 470 kts | 175° |
| 2026-05-05 03:31 | 37.36844 | -120.64079 | 35018 ft | 470 kts | 175° |
| 2026-05-05 03:32 | 37.30373 | -120.63106 | 35021 ft | 467 kts | 165° |
| 2026-05-05 03:32 | 37.24094 | -120.61025 | 35018 ft | 467 kts | 163° |
| 2026-05-05 03:33 | 37.17824 | -120.58907 | 35021 ft | 466 kts | 164° |
| 2026-05-05 03:33 | 37.11547 | -120.56837 | 35032 ft | 466 kts | 164° |
| 2026-05-05 03:34 | 37.05269 | -120.54801 | 35022 ft | 466 kts | 164° |
| 2026-05-05 03:34 | 36.98993 | -120.52777 | 35026 ft | 466 kts | 164° |
| 2026-05-05 03:35 | 36.92721 | -120.50757 | 35026 ft | 465 kts | 165° |
| 2026-05-05 03:35 | 36.86499 | -120.48755 | 35022 ft | 465 kts | 164° |
| 2026-05-05 03:36 | 36.80238 | -120.46743 | 35024 ft | 464 kts | 165° |
| 2026-05-05 03:36 | 36.73982 | -120.44736 | 35029 ft | 464 kts | 165° |
| 2026-05-05 03:37 | 36.67726 | -120.42732 | 35024 ft | 464 kts | 165° |
| 2026-05-05 03:37 | 36.61483 | -120.40736 | 35089 ft | 459 kts | 165° |
| 2026-05-05 03:38 | 36.55315 | -120.38767 | 35033 ft | 458 kts | 166° |
| 2026-05-05 03:38 | 36.49070 | -120.36777 | 35033 ft | 463 kts | 166° |
| 2026-05-05 03:39 | 36.42860 | -120.34802 | 35026 ft | 465 kts | 166° |
| 2026-05-05 03:39 | 36.36589 | -120.32811 | 35025 ft | 466 kts | 166° |
| 2026-05-05 03:40 | 36.30263 | -120.30805 | 35023 ft | 466 kts | 166° |
| 2026-05-05 03:40 | 36.24030 | -120.28831 | 35021 ft | 465 kts | 166° |
| 2026-05-05 03:41 | 36.17719 | -120.26837 | 35016 ft | 465 kts | 166° |
| 2026-05-05 03:41 | 36.11502 | -120.24875 | 35014 ft | 464 kts | 167° |
| 2026-05-05 03:42 | 36.05242 | -120.22903 | 35018 ft | 464 kts | 167° |
| 2026-05-05 03:42 | 35.98990 | -120.20937 | 35016 ft | 463 kts | 167° |
| 2026-05-05 03:43 | 35.92744 | -120.18976 | 35024 ft | 463 kts | 167° |
| 2026-05-05 03:43 | 35.86510 | -120.17022 | 35019 ft | 462 kts | 167° |
| 2026-05-05 03:44 | 35.80278 | -120.15072 | 35018 ft | 462 kts | 167° |
| 2026-05-05 03:44 | 35.74051 | -120.13125 | 35021 ft | 461 kts | 168° |
| 2026-05-05 03:45 | 35.67798 | -120.11168 | 35005 ft | 461 kts | 167° |
| 2026-05-05 03:45 | 35.64857 | -120.09722 | 35006 ft | 466 kts | 152° |
| 2026-05-05 03:45 | 35.62111 | -120.07609 | 35033 ft | 466 kts | 150° |
| 2026-05-05 03:46 | 35.56650 | -120.03339 | 35013 ft | 465 kts | 152° |
| 2026-05-05 03:46 | 35.51172 | -119.99154 | 35028 ft | 463 kts | 152° |
| 2026-05-05 03:47 | 35.45639 | -119.94988 | 35026 ft | 463 kts | 153° |
| 2026-05-05 03:47 | 35.40143 | -119.90864 | 35010 ft | 463 kts | 153° |
| 2026-05-05 03:48 | 35.35586 | -119.87445 | 35031 ft | 462 kts | 153° |
| 2026-05-05 03:48 | 35.29197 | -119.82654 | 34536 ft | 470 kts | 152° |
| 2026-05-05 03:49 | 35.26515 | -119.80336 | 33967 ft | 471 kts | 148° |
| 2026-05-05 03:49 | 35.24755 | -119.78699 | 33441 ft | 471 kts | 147° |
| 2026-05-05 03:49 | 35.21320 | -119.75441 | 32435 ft | 472 kts | 148° |
| 2026-05-05 03:49 | 35.18734 | -119.72982 | 31786 ft | 470 kts | 148° |
| 2026-05-05 03:50 | 35.16996 | -119.71335 | 31467 ft | 465 kts | 148° |
| 2026-05-05 03:50 | 35.14443 | -119.68931 | 30950 ft | 461 kts | 148° |
| 2026-05-05 03:50 | 35.11911 | -119.66561 | 30451 ft | 457 kts | 148° |
| 2026-05-05 03:50 | 35.09397 | -119.64217 | 29929 ft | 452 kts | 149° |
| 2026-05-05 03:51 | 35.06907 | -119.61902 | 29341 ft | 448 kts | 148° |
| 2026-05-05 03:51 | 35.04446 | -119.59615 | 28810 ft | 442 kts | 148° |
| 2026-05-05 03:51 | 35.02017 | -119.57358 | 28306 ft | 436 kts | 149° |
| 2026-05-05 03:51 | 34.99619 | -119.55132 | 27799 ft | 431 kts | 149° |
| 2026-05-05 03:52 | 34.97280 | -119.52963 | 27304 ft | 426 kts | 149° |
| 2026-05-05 03:52 | 34.94936 | -119.50789 | 26824 ft | 421 kts | 149° |
| 2026-05-05 03:52 | 34.92579 | -119.48607 | 26320 ft | 418 kts | 149° |
| 2026-05-05 03:52 | 34.90275 | -119.46487 | 25837 ft | 414 kts | 149° |
| 2026-05-05 03:53 | 34.87969 | -119.44414 | 25356 ft | 410 kts | 149° |
| 2026-05-05 03:53 | 34.85680 | -119.42375 | 24877 ft | 407 kts | 149° |
| 2026-05-05 03:53 | 34.83402 | -119.40348 | 24418 ft | 404 kts | 149° |
| 2026-05-05 03:53 | 34.81143 | -119.38335 | 23951 ft | 401 kts | 149° |
| 2026-05-05 03:54 | 34.78899 | -119.36332 | 23453 ft | 400 kts | 149° |
| 2026-05-05 03:54 | 34.76679 | -119.34348 | 23201 ft | 390 kts | 149° |
| 2026-05-05 03:54 | 34.74548 | -119.32444 | 22960 ft | 382 kts | 149° |
| 2026-05-05 03:54 | 34.72373 | -119.30534 | 22460 ft | 379 kts | 149° |
| 2026-05-05 03:55 | 34.70240 | -119.28677 | 22060 ft | 376 kts | 149° |
| 2026-05-05 03:55 | 34.68121 | -119.26831 | 21623 ft | 373 kts | 149° |
| 2026-05-05 03:55 | 34.66049 | -119.25025 | 21222 ft | 370 kts | 149° |
| 2026-05-05 03:55 | 34.63968 | -119.23213 | 20819 ft | 366 kts | 149° |
| 2026-05-05 03:56 | 34.61895 | -119.21426 | 20414 ft | 364 kts | 149° |
| 2026-05-05 03:56 | 34.59808 | -119.19628 | 20012 ft | 362 kts | 149° |
| 2026-05-05 03:56 | 34.57781 | -119.17885 | 19610 ft | 361 kts | 149° |
| 2026-05-05 03:56 | 34.55188 | -119.15639 | 19100 ft | 359 kts | 148° |
| 2026-05-05 03:57 | 34.53721 | -119.14342 | 18811 ft | 358 kts | 148° |
| 2026-05-05 03:57 | 34.51715 | -119.12558 | 18412 ft | 357 kts | 147° |
| 2026-05-05 03:57 | 34.49716 | -119.10780 | 17972 ft | 356 kts | 148° |
| 2026-05-05 03:57 | 34.47721 | -119.09011 | 17516 ft | 355 kts | 148° |
| 2026-05-05 03:58 | 34.45730 | -119.07250 | 17131 ft | 352 kts | 148° |
| 2026-05-05 03:58 | 34.43755 | -119.05508 | 16698 ft | 351 kts | 148° |
| 2026-05-05 03:58 | 34.41776 | -119.03788 | 16305 ft | 350 kts | 148° |
| 2026-05-05 03:58 | 34.39795 | -119.02076 | 15895 ft | 348 kts | 148° |
| 2026-05-05 03:59 | 34.37829 | -119.00377 | 15496 ft | 347 kts | 148° |
| 2026-05-05 03:59 | 34.35869 | -118.98682 | 15094 ft | 345 kts | 148° |
| 2026-05-05 03:59 | 34.33928 | -118.97000 | 14719 ft | 344 kts | 147° |
| 2026-05-05 03:59 | 34.32010 | -118.95274 | 14328 ft | 343 kts | 146° |
| 2026-05-05 04:00 | 34.30108 | -118.93535 | 13931 ft | 341 kts | 146° |
| 2026-05-05 04:00 | 34.28217 | -118.91809 | 13503 ft | 340 kts | 146° |
| 2026-05-05 04:00 | 34.26328 | -118.90094 | 13097 ft | 338 kts | 146° |
| 2026-05-05 04:00 | 34.24455 | -118.88387 | 12699 ft | 336 kts | 146° |
| 2026-05-05 04:01 | 34.22603 | -118.86684 | 12434 ft | 330 kts | 146° |
| 2026-05-05 04:01 | 34.20804 | -118.85026 | 12293 ft | 321 kts | 146° |
| 2026-05-05 04:01 | 34.19057 | -118.83420 | 12144 ft | 312 kts | 146° |
| 2026-05-05 04:01 | 34.17351 | -118.81854 | 12012 ft | 304 kts | 146° |
| 2026-05-05 04:02 | 34.15708 | -118.80289 | 11770 ft | 300 kts | 142° |
| 2026-05-05 04:02 | 34.14153 | -118.78615 | 11478 ft | 299 kts | 140° |
| 2026-05-05 04:02 | 34.12625 | -118.76921 | 11190 ft | 297 kts | 141° |
| 2026-05-05 04:02 | 34.11109 | -118.75240 | 10888 ft | 295 kts | 141° |
| 2026-05-05 04:03 | 34.09594 | -118.73574 | 10598 ft | 294 kts | 141° |
| 2026-05-05 04:03 | 34.08078 | -118.71920 | 10306 ft | 293 kts | 141° |
| 2026-05-05 04:03 | 34.06567 | -118.70277 | 10029 ft | 292 kts | 141° |
| 2026-05-05 04:03 | 34.05076 | -118.68659 | 9920 ft | 281 kts | 141° |
| 2026-05-05 04:04 | 34.03656 | -118.67027 | 9438 ft | 283 kts | 131° |
| 2026-05-05 04:04 | 34.02816 | -118.64910 | 9131 ft | 282 kts | 104° |
| 2026-05-05 04:04 | 34.02552 | -118.62580 | 8853 ft | 279 kts | 98° |
| 2026-05-05 04:04 | 34.02359 | -118.60258 | 8563 ft | 279 kts | 98° |
| 2026-05-05 04:05 | 34.02155 | -118.57936 | 8282 ft | 278 kts | 98° |
| 2026-05-05 04:05 | 34.01946 | -118.55639 | 7990 ft | 272 kts | 98° |
| 2026-05-05 04:05 | 34.01742 | -118.53415 | 7764 ft | 263 kts | 98° |
| 2026-05-05 04:05 | 34.01542 | -118.51264 | 7535 ft | 254 kts | 98° |
| 2026-05-05 04:06 | 34.01348 | -118.49196 | 7360 ft | 242 kts | 98° |
| 2026-05-05 04:06 | 34.01162 | -118.47225 | 7170 ft | 233 kts | 98° |
| 2026-05-05 04:06 | 34.01040 | -118.45300 | 6986 ft | 228 kts | 86° |
| 2026-05-05 04:06 | 34.01354 | -118.43425 | 6795 ft | 228 kts | 77° |
| 2026-05-05 04:07 | 34.01709 | -118.41559 | 6585 ft | 229 kts | 78° |
| 2026-05-05 04:07 | 34.02046 | -118.39674 | 6393 ft | 230 kts | 78° |
| 2026-05-05 04:07 | 34.02381 | -118.37761 | 6178 ft | 231 kts | 78° |
| 2026-05-05 04:07 | 34.02708 | -118.35874 | 6032 ft | 229 kts | 79° |
| 2026-05-05 04:08 | 34.02939 | -118.34011 | 5998 ft | 227 kts | 84° |
| 2026-05-05 04:08 | 34.03124 | -118.32108 | 6004 ft | 231 kts | 84° |
| 2026-05-05 04:08 | 34.03313 | -118.30165 | 6005 ft | 230 kts | 84° |
| 2026-05-05 04:08 | 34.03498 | -118.28253 | 5653 ft | 237 kts | 84° |
| 2026-05-05 04:09 | 34.03695 | -118.26269 | 5296 ft | 232 kts | 85° |
| 2026-05-05 04:09 | 34.03595 | -118.24390 | 4891 ft | 221 kts | 109° |
| 2026-05-05 04:09 | 34.02852 | -118.22875 | 4509 ft | 203 kts | 136° |
| 2026-05-05 04:09 | 34.01690 | -118.21864 | 4151 ft | 192 kts | 160° |
| 2026-05-05 04:10 | 34.00503 | -118.21463 | 3904 ft | 187 kts | 178° |
| 2026-05-05 04:10 | 33.99228 | -118.21587 | 3610 ft | 184 kts | 199° |
| 2026-05-05 04:10 | 33.98101 | -118.22278 | 3323 ft | 182 kts | 219° |
| 2026-05-05 04:10 | 33.97261 | -118.23398 | 2955 ft | 182 kts | 243° |
| 2026-05-05 04:11 | 33.96963 | -118.24838 | 2694 ft | 173 kts | 259° |
| 2026-05-05 04:11 | 33.96733 | -118.26251 | 2331 ft | 169 kts | 258° |
| 2026-05-05 04:11 | 33.96510 | -118.27585 | 2123 ft | 157 kts | 259° |
| 2026-05-05 04:11 | 33.96343 | -118.28862 | 1852 ft | 153 kts | 262° |
| 2026-05-05 04:12 | 33.96245 | -118.30109 | 1672 ft | 147 kts | 264° |
| 2026-05-05 04:12 | 33.96141 | -118.31326 | 1509 ft | 148 kts | 263° |
| 2026-05-05 04:12 | 33.96041 | -118.32546 | 1378 ft | 137 kts | 262° |
| 2026-05-05 04:12 | 33.95917 | -118.33643 | 1370 ft | 129 kts | 259° |
| 2026-05-05 04:13 | 33.95762 | -118.34714 | 1242 ft | 135 kts | 260° |
| 2026-05-05 04:13 | 33.95647 | -118.35848 | 995 ft | 133 kts | 264° |
| 2026-05-05 04:13 | 33.95530 | -118.36954 | 751 ft | 133 kts | 263° |
| 2026-05-05 04:13 | 33.95439 | -118.38036 | 533 ft | 127 kts | 259° |
| 2026-05-05 04:14 | 33.95318 | -118.39124 | 337 ft | 135 kts | 261° |
| 2026-05-05 04:14 | 33.95205 | -118.40236 | 134 ft | 132 kts | 258° |
| 2026-05-05 04:14 | 33.95099 | -118.41246 | 91 ft | 106 kts | 263° |
| 2026-05-05 04:14 | 33.95029 | -118.41951 | 93 ft | 63 kts | 263° |
| 2026-05-05 04:15 | 33.94991 | -118.42321 | 93 ft | 35 kts | 262° |
| 2026-05-05 04:15 | 33.94913 | -118.42582 | 94 ft | 31 kts | 236° |
| 2026-05-05 04:15 | 33.94775 | -118.42745 | 101 ft | 24 kts | 209° |
| 2026-05-05 04:15 | 33.94653 | -118.42763 | 95 ft | 16 kts | 148° |
| 2026-05-05 04:16 | 33.94645 | -118.42635 | 94 ft | 16 kts | 82° |
| 2026-05-05 04:16 | 33.94658 | -118.42506 | 93 ft | 15 kts | 83° |
| 2026-05-05 04:16 | 33.94673 | -118.42357 | 93 ft | 21 kts | 83° |
| 2026-05-05 04:16 | 33.94692 | -118.42177 | 94 ft | 22 kts | 82° |
| 2026-05-05 04:17 | 33.94709 | -118.41999 | 93 ft | 21 kts | 83° |
| 2026-05-05 04:17 | 33.94726 | -118.41827 | 94 ft | 20 kts | 83° |
| 2026-05-05 04:17 | 33.94743 | -118.41659 | 92 ft | 20 kts | 83° |
| 2026-05-05 04:17 | 33.94757 | -118.41522 | 93 ft | 16 kts | 82° |
| 2026-05-05 04:18 | 33.94772 | -118.41413 | 93 ft | 13 kts | 72° |
| 2026-05-05 04:18 | 33.94778 | -118.41321 | 93 ft | 10 kts | 118° |
| 2026-05-05 04:18 | 33.94716 | -118.41287 | 94 ft | 10 kts | 172° |
| 2026-05-05 04:18 | 33.94648 | -118.41276 | 94 ft | 10 kts | 173° |
| 2026-05-05 04:19 | 33.94581 | -118.41266 | 93 ft | 10 kts | 173° |
| 2026-05-05 04:19 | 33.94516 | -118.41258 | 93 ft | 9 kts | 174° |
| 2026-05-05 04:19 | 33.94453 | -118.41249 | 93 ft | 9 kts | 173° |
| 2026-05-05 04:19 | 33.94391 | -118.41239 | 94 ft | 9 kts | 172° |
| 2026-05-05 04:20 | 33.94332 | -118.41229 | 94 ft | 9 kts | 171° |
| 2026-05-05 04:20 | 33.94269 | -118.41219 | 93 ft | 11 kts | 173° |
| 2026-05-05 04:20 | 33.94176 | -118.41206 | 94 ft | 15 kts | 174° |
| 2026-05-05 04:20 | 33.94071 | -118.41192 | 92 ft | 15 kts | 173° |
| 2026-05-05 04:21 | 33.93971 | -118.41175 | 92 ft | 14 kts | 172° |
| 2026-05-05 04:21 | 33.93876 | -118.41155 | 92 ft | 14 kts | 151° |
| 2026-05-05 04:21 | 33.93855 | -118.41053 | 93 ft | 13 kts | 83° |
| 2026-05-05 04:21 | 33.93866 | -118.40947 | 95 ft | 13 kts | 83° |
| 2026-05-05 04:22 | 33.93879 | -118.40828 | 92 ft | 15 kts | 82° |
| 2026-05-05 04:22 | 33.93890 | -118.40707 | 92 ft | 14 kts | 82° |
| 2026-05-05 04:22 | 33.93904 | -118.40591 | 94 ft | 14 kts | 83° |
| 2026-05-05 04:22 | 33.93914 | -118.40480 | 93 ft | 13 kts | 82° |
| 2026-05-05 04:23 | 33.93925 | -118.40374 | 93 ft | 13 kts | 83° |
| 2026-05-05 04:23 | 33.93935 | -118.40269 | 94 ft | 12 kts | 83° |
| 2026-05-05 04:23 | 33.93945 | -118.40168 | 96 ft | 12 kts | 84° |
| 2026-05-05 04:23 | 33.93961 | -118.40079 | 93 ft | 10 kts | 50° |
| 2026-05-05 04:24 | 33.94024 | -118.40067 | 94 ft | 9 kts | 351° |
| 2026-05-05 04:24 | 33.94048 | -118.40083 | 93 ft | 4 kts | 311° |
| 2026-05-05 04:24 | 33.94054 | -118.40114 | 95 ft | 4 kts | 271° |